Time;durP1;ratioP1;P1;durP2;ratioP2;P2;SDS_P1;SDS_P2;PMS_P1;PMS_P2;Temp;Humidity;BMP_temperature;BMP_pressure;BME280_temperature;BME280_humidity;BME280_pressure;Samples;Min_cycle;Max_cycle;Signal;HPM_P1;HPM_P2
2022/10/27 00:00:52;;;;;;;10.90;5.72;;;;;;;13.66;81.46;99098.13;7385383;19;20768;-77
2022/10/27 00:03:18;;;;;;;11.68;5.97;;;;;;;13.55;81.63;99094.75;7389277;19;20018;-78
2022/10/27 00:05:46;;;;;;;18.73;6.40;;;;;;;13.56;81.90;99101.75;7389792;19;20031;-77
2022/10/27 00:08:20;;;;;;;10.23;6.78;;;;;;;13.57;81.80;99099.91;7388516;19;20392;-77
2022/10/27 00:11:01;;;;;;;13.43;5.95;;;;;;;13.65;81.69;99099.97;7384671;19;20051;-77
2022/10/27 00:13:38;;;;;;;12.27;6.30;;;;;;;13.80;80.81;99089.56;7388140;19;20050;-77
2022/10/27 00:16:08;;;;;;;15.93;6.35;;;;;;;13.68;80.84;99101.47;7385903;19;20031;-77
2022/10/27 00:18:35;;;;;;;15.30;6.03;;;;;;;13.51;80.93;99093.41;7381982;19;20018;-77
2022/10/27 00:21:07;;;;;;;11.40;5.88;;;;;;;13.41;81.33;99099.81;7384321;19;20035;-77
2022/10/27 00:23:34;;;;;;;14.80;6.57;;;;;;;13.38;81.64;99090.34;7391159;19;20011;-77
2022/10/27 00:26:01;;;;;;;15.57;6.15;;;;;;;13.37;81.60;99094.78;7383663;19;20025;-77
2022/10/27 00:28:29;;;;;;;8.05;5.68;;;;;;;13.39;81.61;99097.31;7382678;19;20137;-78
2022/10/27 00:30:57;;;;;;;15.63;6.50;;;;;;;13.33;81.71;99097.94;7391166;19;20497;-78
2022/10/27 00:33:24;;;;;;;12.27;6.63;;;;;;;13.42;81.73;99104.97;7391909;19;20035;-77
2022/10/27 00:35:50;;;;;;;15.18;6.82;;;;;;;13.32;81.87;99101.56;7389988;19;20046;-77
2022/10/27 00:38:17;;;;;;;13.23;7.32;;;;;;;13.29;81.57;99101.88;7386787;19;21766;-78
2022/10/27 00:40:44;;;;;;;13.73;7.10;;;;;;;13.23;81.57;99102.47;7389995;19;20045;-77
2022/10/27 00:43:32;;;;;;;10.52;6.03;;;;;;;13.26;81.92;99102.16;7387245;19;20031;-77
2022/10/27 00:46:05;;;;;;;10.13;6.95;;;;;;;13.23;81.82;99115.75;7390897;19;20122;-78
2022/10/27 00:48:33;;;;;;;13.52;7.43;;;;;;;13.25;81.87;99122.59;7387110;19;20051;-77
2022/10/27 00:51:00;;;;;;;19.35;7.15;;;;;;;13.16;81.66;99121.69;7388296;19;20014;-78
2022/10/27 00:53:27;;;;;;;11.65;6.03;;;;;;;13.17;82.06;99118.03;7388625;19;20022;-77
2022/10/27 00:55:54;;;;;;;14.43;6.03;;;;;;;13.22;81.82;99116.72;7387865;19;20014;-77
2022/10/27 00:58:21;;;;;;;13.35;6.70;;;;;;;13.23;81.81;99119.25;7384948;19;20018;-77
2022/10/27 01:00:48;;;;;;;12.82;7.38;;;;;;;13.20;81.78;99119.56;7381421;19;20110;-77
2022/10/27 01:03:18;;;;;;;15.70;6.72;;;;;;;13.09;82.18;99128.59;7392697;19;20389;-77
2022/10/27 01:05:45;;;;;;;15.65;7.18;;;;;;;13.07;82.21;99124.44;7390756;19;20011;-78
2022/10/27 01:08:13;;;;;;;13.23;7.47;;;;;;;13.01;82.06;99125.88;7388460;19;20034;-78
2022/10/27 01:10:39;;;;;;;15.40;6.78;;;;;;;13.02;82.08;99119.56;7386889;19;20061;-78
2022/10/27 01:13:06;;;;;;;11.15;5.93;;;;;;;13.06;82.19;99117.44;7389789;19;20018;-78
2022/10/27 01:16:10;;;;;;;12.38;6.78;;;;;;;13.07;82.27;99121.78;7389026;19;20010;-78
2022/10/27 01:19:10;;;;;;;13.70;7.30;;;;;;;13.04;82.21;99117.59;7384821;19;20019;-78
2022/10/27 01:21:53;;;;;;;11.70;6.82;;;;;;;12.94;81.82;99108.88;7388855;19;20036;-78
2022/10/27 01:24:46;;;;;;;15.93;7.28;;;;;;;12.88;82.02;99109.50;7387665;19;20389;-78
2022/10/27 01:27:28;;;;;;;12.63;6.40;;;;;;;12.83;82.00;99112.59;7385686;19;20043;-78
2022/10/27 01:30:17;;;;;;;10.32;5.88;;;;;;;12.89;82.04;99114.66;7388144;19;20007;-78
2022/10/27 01:33:02;;;;;;;11.93;6.97;;;;;;;12.96;82.17;99118.38;7385596;19;20019;-78
2022/10/27 01:35:43;;;;;;;8.93;6.20;;;;;;;13.02;81.64;99111.59;7387174;19;20007;-77
2022/10/27 01:38:16;;;;;;;13.40;6.95;;;;;;;12.92;81.78;99116.16;7390111;19;20661;-78
2022/10/27 01:40:54;;;;;;;12.13;6.43;;;;;;;12.91;81.59;99115.34;7394277;19;20020;-77
2022/10/27 01:43:23;;;;;;;13.60;7.07;;;;;;;12.87;81.71;99110.47;7393254;19;20015;-77
2022/10/27 01:45:51;;;;;;;7.45;6.07;;;;;;;12.79;81.77;99107.75;7392912;19;20011;-77
2022/10/27 01:48:18;;;;;;;8.02;5.68;;;;;;;12.79;82.19;99110.41;7389961;19;20075;-77
2022/10/27 01:50:45;;;;;;;8.63;6.20;;;;;;;12.70;82.14;99101.53;7390738;19;20050;-77
2022/10/27 01:53:30;;;;;;;7.65;5.55;;;;;;;12.83;81.55;99107.28;7395354;19;20010;-77
2022/10/27 01:56:05;;;;;;;9.75;6.38;;;;;;;12.92;80.82;99106.38;7391505;19;20481;-77
2022/10/27 01:58:38;;;;;;;8.35;5.72;;;;;;;12.90;80.10;99105.72;7388528;19;20368;-77
2022/10/27 02:01:11;;;;;;;8.93;5.38;;;;;;;12.83;80.09;99104.63;7389183;19;20046;-77
2022/10/27 02:03:50;;;;;;;14.38;5.85;;;;;;;12.81;80.52;99103.94;7393700;19;20498;-77
2022/10/27 02:06:25;;;;;;;11.48;5.53;;;;;;;12.80;80.62;99096.16;7389207;19;20022;-77
2022/10/27 02:08:55;;;;;;;12.98;5.75;;;;;;;12.79;80.49;99097.13;7390420;19;20023;-77
2022/10/27 02:11:21;;;;;;;8.38;6.10;;;;;;;12.75;80.58;99091.28;7390034;19;20052;-77
2022/10/27 02:13:48;;;;;;;9.55;5.68;;;;;;;12.82;80.92;99094.16;7392636;19;20018;-77
2022/10/27 02:16:19;;;;;;;13.23;5.97;;;;;;;12.78;80.85;99096.28;7388827;19;20138;-77
2022/10/27 02:18:52;;;;;;;14.98;6.13;;;;;;;12.60;81.63;99096.28;7385859;19;20038;-77
2022/10/27 02:21:20;;;;;;;11.95;6.70;;;;;;;12.69;81.58;99098.06;7391383;19;20014;-77
2022/10/27 02:23:47;;;;;;;20.23;6.55;;;;;;;12.73;80.74;99098.56;7391497;19;20277;-77
2022/10/27 02:26:24;;;;;;;8.57;5.55;;;;;;;12.54;80.55;99102.22;7389405;19;20369;-77
2022/10/27 02:28:55;;;;;;;10.80;5.53;;;;;;;12.61;80.55;99107.72;7390968;19;20031;-77
2022/10/27 02:31:26;;;;;;;5.93;5.13;;;;;;;12.61;80.26;99113.91;7390236;19;20028;-77
2022/10/27 02:33:54;;;;;;;13.52;5.82;;;;;;;12.47;81.10;99111.75;7385114;19;20018;-77
2022/10/27 02:36:20;;;;;;;12.38;5.88;;;;;;;12.39;81.63;99106.34;7393871;19;20375;-77
2022/10/27 02:38:47;;;;;;;9.35;5.53;;;;;;;12.54;81.11;99109.34;7392270;19;21028;-77
2022/10/27 02:41:14;;;;;;;5.43;4.70;;;;;;;12.45;81.21;99105.75;7390782;19;20532;-78
2022/10/27 02:43:40;;;;;;;11.23;5.90;;;;;;;12.45;81.04;99109.25;7394611;19;20035;-77
2022/10/27 02:46:07;;;;;;;18.92;5.05;;;;;;;12.37;81.01;99105.66;7397418;19;20014;-78
2022/10/27 02:48:34;;;;;;;24.73;5.05;;;;;;;12.31;80.85;99101.78;7390314;19;20018;-77
2022/10/27 02:51:01;;;;;;;9.02;5.30;;;;;;;12.37;80.53;99105.66;7389925;19;20501;-77
2022/10/27 02:53:27;;;;;;;12.68;5.07;;;;;;;12.17;81.27;99108.44;7394058;19;20880;-78
2022/10/27 02:55:54;;;;;;;6.70;4.68;;;;;;;12.17;81.38;99110.25;7393121;19;20018;-78
2022/10/27 02:58:21;;;;;;;11.50;5.00;;;;;;;12.19;81.92;99109.13;7392077;19;20027;-78
2022/10/27 03:00:52;;;;;;;9.15;5.50;;;;;;;12.16;82.30;99108.56;7392467;19;20018;-78
2022/10/27 03:03:19;;;;;;;10.93;5.07;;;;;;;12.24;81.77;99108.66;7395886;19;20039;-77
2022/10/27 03:05:45;;;;;;;7.97;5.20;;;;;;;12.23;81.79;99107.00;7393259;19;22510;-77
2022/10/27 03:08:14;;;;;;;10.60;5.60;;;;;;;12.22;82.04;99106.19;7391745;19;20485;-78
2022/10/27 03:10:42;;;;;;;8.10;4.95;;;;;;;12.22;82.07;99111.47;7388050;19;20019;-78
2022/10/27 03:13:09;;;;;;;7.43;5.35;;;;;;;12.20;82.13;99112.63;7389576;19;20524;-78
2022/10/27 03:15:36;;;;;;;5.68;5.00;;;;;;;12.15;82.40;99106.91;7390408;19;20019;-78
2022/10/27 03:18:03;;;;;;;8.90;4.97;;;;;;;12.08;82.06;99107.50;7389127;19;20020;-78
2022/10/27 03:20:30;;;;;;;9.25;5.10;;;;;;;12.10;82.13;99103.88;7390311;19;20078;-78
2022/10/27 03:22:57;;;;;;;12.93;4.70;;;;;;;12.12;82.17;99097.44;7392892;19;20010;-78
2022/10/27 03:25:23;;;;;;;7.60;5.47;;;;;;;12.11;82.22;99106.34;7393731;19;20098;-78
2022/10/27 03:27:51;;;;;;;12.90;5.55;;;;;;;12.06;82.11;99106.81;7391604;19;20355;-78
2022/10/27 03:30:18;;;;;;;8.45;4.70;;;;;;;12.10;82.44;99109.16;7388861;19;20015;-77
2022/10/27 03:32:46;;;;;;;13.70;5.60;;;;;;;12.11;82.48;99103.69;7394748;19;20383;-78
2022/10/27 03:35:14;;;;;;;7.15;5.15;;;;;;;12.17;82.61;99104.97;7392263;19;20018;-77
2022/10/27 03:37:41;;;;;;;11.15;5.60;;;;;;;12.14;82.65;99107.88;7391869;19;20022;-78
2022/10/27 03:40:09;;;;;;;12.27;5.30;;;;;;;12.13;82.70;99108.88;7390570;19;20007;-78
2022/10/27 03:42:41;;;;;;;10.73;6.35;;;;;;;12.20;82.57;99105.47;7391404;19;20018;-78
2022/10/27 03:45:09;;;;;;;9.02;5.15;;;;;;;12.14;82.50;99106.09;7392273;19;20022;-78
2022/10/27 03:47:36;;;;;;;7.68;5.72;;;;;;;12.12;82.52;99109.88;7387840;19;20019;-78
2022/10/27 03:50:03;;;;;;;7.57;4.97;;;;;;;12.18;82.52;99106.63;7390329;19;20043;-78
2022/10/27 03:52:30;;;;;;;9.38;5.70;;;;;;;12.28;82.49;99107.41;7392699;19;20019;-78
2022/10/27 03:54:59;;;;;;;8.95;5.72;;;;;;;12.36;82.01;99101.34;7394686;19;20411;-78
2022/10/27 03:57:25;;;;;;;8.35;5.53;;;;;;;12.38;81.48;99104.69;7387840;19;20052;-78
2022/10/27 03:59:52;;;;;;;9.95;5.05;;;;;;;12.31;81.40;99093.81;7391379;19;20010;-78
2022/10/27 04:02:19;;;;;;;9.15;5.13;;;;;;;12.28;80.97;99100.25;7390044;19;20031;-78
2022/10/27 04:04:45;;;;;;;10.02;4.57;;;;;;;12.22;80.86;99102.69;7390213;19;20970;-78
2022/10/27 04:07:12;;;;;;;9.43;4.70;;;;;;;12.14;81.06;99100.78;7390452;19;20364;-78
2022/10/27 04:09:39;;;;;;;8.90;4.95;;;;;;;12.07;81.30;99105.00;7390187;19;20014;-77
2022/10/27 04:12:05;;;;;;;6.97;4.68;;;;;;;12.01;81.62;99106.44;7388411;19;20507;-78
2022/10/27 04:14:32;;;;;;;8.70;4.97;;;;;;;12.01;81.71;99110.91;7388394;19;20423;-78
2022/10/27 04:16:59;;;;;;;8.73;4.93;;;;;;;12.07;82.03;99115.59;7385518;19;20014;-78
2022/10/27 04:19:25;;;;;;;11.95;5.47;;;;;;;12.12;82.01;99116.00;7383466;19;20014;-78
2022/10/27 04:21:52;;;;;;;5.88;5.22;;;;;;;12.23;81.57;99113.13;7387831;19;20011;-77
2022/10/27 04:24:19;;;;;;;7.85;5.18;;;;;;;12.15;81.40;99121.00;7390469;19;20007;-77
2022/10/27 04:26:45;;;;;;;11.73;5.28;;;;;;;11.96;81.81;99116.63;7386741;19;20497;-77
2022/10/27 04:29:12;;;;;;;6.93;4.72;;;;;;;11.95;82.10;99116.78;7384385;19;20011;-77
2022/10/27 04:31:39;;;;;;;16.27;5.05;;;;;;;12.02;81.47;99116.03;7387497;19;20014;-78
2022/10/27 04:34:05;;;;;;;7.00;4.43;;;;;;;11.95;81.10;99117.59;7390439;19;20035;-77
2022/10/27 04:36:32;;;;;;;8.20;5.05;;;;;;;11.92;81.13;99111.75;7388483;19;20022;-78
2022/10/27 04:38:58;;;;;;;8.88;4.85;;;;;;;11.80;81.18;99116.41;7387663;19;20014;-78
2022/10/27 04:41:25;;;;;;;9.73;5.20;;;;;;;11.75;81.35;99119.47;7391680;19;20011;-78
2022/10/27 04:43:52;;;;;;;8.32;5.38;;;;;;;11.61;81.91;99117.28;7392904;19;20035;-78
2022/10/27 04:46:18;;;;;;;7.55;5.03;;;;;;;11.80;81.35;99119.03;7385375;19;20015;-78
2022/10/27 04:48:45;;;;;;;7.43;4.75;;;;;;;11.84;80.64;99121.25;7386612;19;20011;-78
2022/10/27 04:51:12;;;;;;;6.70;4.38;;;;;;;11.74;80.84;99119.59;7387523;19;20486;-77
2022/10/27 04:53:39;;;;;;;11.98;4.60;;;;;;;11.70;80.58;99121.72;7385746;19;20043;-78
2022/10/27 04:56:06;;;;;;;9.55;3.95;;;;;;;11.67;80.21;99129.13;7390175;19;20016;-78
2022/10/27 04:58:32;;;;;;;11.38;4.30;;;;;;;11.59;80.32;99120.09;7389680;19;20038;-78
2022/10/27 05:01:05;;;;;;;12.48;4.57;;;;;;;11.62;79.95;99124.25;7386568;19;20510;-77
2022/10/27 05:03:32;;;;;;;5.05;4.13;;;;;;;11.54;79.99;99122.31;7386061;19;20058;-78
2022/10/27 05:05:59;;;;;;;7.18;4.28;;;;;;;11.41;79.99;99127.09;7391121;19;20015;-77
2022/10/27 05:08:26;;;;;;;7.53;4.50;;;;;;;11.36;80.33;99122.22;7385748;19;20014;-77
2022/10/27 05:10:52;;;;;;;7.28;4.38;;;;;;;11.30;81.11;99117.50;7381685;19;20018;-77
2022/10/27 05:13:19;;;;;;;7.93;4.32;;;;;;;11.30;81.10;99120.16;7387904;19;20053;-76
2022/10/27 05:15:46;;;;;;;9.40;5.15;;;;;;;11.31;80.85;99124.47;7393132;19;20485;-77
2022/10/27 05:18:12;;;;;;;7.38;5.13;;;;;;;11.38;80.93;99119.44;7391545;19;20022;-76
2022/10/27 05:20:39;;;;;;;10.35;5.65;;;;;;;11.38;80.73;99114.16;7390060;19;20014;-76
2022/10/27 05:23:06;;;;;;;6.63;5.00;;;;;;;11.46;80.72;99105.47;7391545;19;20014;-77
2022/10/27 05:25:33;;;;;;;8.73;5.55;;;;;;;11.48;80.69;99108.81;7387063;19;20014;-77
2022/10/27 05:28:04;;;;;;;10.52;5.40;;;;;;;11.38;81.26;99108.84;7386180;19;20373;-76
2022/10/27 05:30:30;;;;;;;12.55;5.88;;;;;;;11.35;81.43;99109.13;7390466;19;20503;-76
2022/10/27 05:32:57;;;;;;;13.05;5.78;;;;;;;11.40;81.58;99106.88;7388718;19;20025;-77
2022/10/27 05:35:24;;;;;;;6.60;5.35;;;;;;;11.46;81.58;99116.09;7387354;19;20056;-76
2022/10/27 05:37:50;;;;;;;29.58;6.15;;;;;;;11.46;81.47;99116.09;7384670;19;20394;-76
2022/10/27 05:40:18;;;;;;;10.95;5.07;;;;;;;11.48;81.52;99114.97;7392738;19;20018;-76
2022/10/27 05:42:49;;;;;;;42.15;5.88;;;;;;;11.30;81.75;99106.06;7391801;19;20023;-77
2022/10/27 05:45:22;;;;;;;28.52;5.88;;;;;;;11.32;81.92;99112.03;7388982;19;20018;-77
2022/10/27 05:47:59;;;;;;;13.85;6.28;;;;;;;11.36;81.99;99108.97;7389907;19;20010;-76
2022/10/27 05:50:26;;;;;;;11.23;5.70;;;;;;;11.37;81.80;99097.41;7394042;19;20043;-76
2022/10/27 05:52:53;;;;;;;10.63;5.70;;;;;;;11.49;81.56;99099.88;7392258;19;20014;-76
2022/10/27 05:55:22;;;;;;;16.00;6.25;;;;;;;11.45;81.45;99093.19;7392093;19;20026;-77
2022/10/27 05:57:56;;;;;;;18.15;5.97;;;;;;;11.41;81.50;99088.19;7391867;19;20047;-76
2022/10/27 06:00:24;;;;;;;19.38;5.63;;;;;;;11.38;81.35;99093.78;7392108;19;20031;-77
2022/10/27 06:02:51;;;;;;;46.53;7.15;;;;;;;11.28;81.46;99087.66;7389293;19;20053;-76
2022/10/27 06:05:18;;;;;;;12.90;5.43;;;;;;;11.26;81.30;99092.25;7390300;19;20038;-76
2022/10/27 06:07:44;;;;;;;17.27;5.72;;;;;;;11.19;81.51;99094.66;7388408;19;20014;-76
2022/10/27 06:10:11;;;;;;;33.78;6.50;;;;;;;11.19;81.42;99096.47;7391071;19;20056;-76
2022/10/27 06:12:38;;;;;;;21.40;6.30;;;;;;;11.19;81.58;99093.81;7391402;19;20044;-76
2022/10/27 06:15:05;;;;;;;36.88;6.10;;;;;;;11.20;81.46;99100.78;7394218;19;20392;-76
2022/10/27 06:17:31;;;;;;;14.50;5.43;;;;;;;11.17;81.70;99101.91;7389081;19;20038;-76
2022/10/27 06:19:58;;;;;;;36.70;7.03;;;;;;;11.09;82.28;99101.78;7392304;19;20022;-76
2022/10/27 06:22:25;;;;;;;13.15;6.25;;;;;;;11.20;81.82;99098.13;7392340;19;20034;-76
2022/10/27 06:24:51;;;;;;;49.22;7.78;;;;;;;11.19;81.90;99101.78;7393188;19;20022;-76
2022/10/27 06:27:18;;;;;;;12.80;6.93;;;;;;;11.20;82.23;99101.63;7389603;19;20022;-76
2022/10/27 06:29:45;;;;;;;12.57;7.57;;;;;;;11.26;82.42;99104.69;7390255;19;20051;-76
2022/10/27 06:32:11;;;;;;;11.23;6.75;;;;;;;11.39;82.34;99115.81;7391375;19;20022;-76
2022/10/27 06:34:38;;;;;;;7.90;6.50;;;;;;;11.43;82.11;99119.84;7392216;19;20389;-76
2022/10/27 06:37:05;;;;;;;9.80;6.95;;;;;;;11.49;81.97;99127.22;7391640;19;20513;-75
2022/10/27 06:39:32;;;;;;;11.70;6.97;;;;;;;11.47;82.07;99123.03;7393719;19;20132;-75
2022/10/27 06:41:58;;;;;;;9.25;7.65;;;;;;;11.58;81.78;99125.50;7389602;19;20046;-76
2022/10/27 06:44:26;;;;;;;14.15;7.10;;;;;;;11.48;81.51;99130.00;7389417;19;20046;-76
2022/10/27 06:46:52;;;;;;;8.60;6.72;;;;;;;11.53;81.55;99127.75;7389584;19;20044;-76
2022/10/27 06:49:19;;;;;;;8.45;6.97;;;;;;;11.60;80.96;99140.28;7391222;19;20505;-76
2022/10/27 06:51:46;;;;;;;9.77;6.63;;;;;;;11.58;80.07;99144.91;7387678;19;20031;-76
2022/10/27 06:54:12;;;;;;;12.73;6.18;;;;;;;11.49;80.60;99148.41;7390867;19;20022;-76
2022/10/27 06:56:39;;;;;;;10.27;6.80;;;;;;;11.50;80.85;99150.06;7393776;19;20654;-76
2022/10/27 06:59:05;;;;;;;8.65;6.82;;;;;;;11.57;80.85;99143.22;7389508;19;20380;-76
2022/10/27 07:01:32;;;;;;;8.25;6.07;;;;;;;11.57;81.10;99143.22;7390088;19;20053;-76
2022/10/27 07:03:59;;;;;;;10.13;6.95;;;;;;;11.67;81.32;99145.88;7391501;19;20019;-76
2022/10/27 07:06:25;;;;;;;14.05;6.88;;;;;;;11.78;82.13;99153.66;7390131;19;20014;-76
2022/10/27 07:08:52;;;;;;;17.60;7.80;;;;;;;11.96;81.81;99150.28;7390706;19;20015;-76
2022/10/27 07:11:39;;;;;;;14.27;8.05;;;;;;;12.14;81.75;99139.72;7392156;19;20035;-76
2022/10/27 07:14:05;;;;;;;11.98;8.10;;;;;;;12.19;82.18;99143.63;7391614;19;20019;-75
2022/10/27 07:16:32;;;;;;;13.48;8.43;;;;;;;12.33;82.64;99149.41;7391035;19;20039;-76
2022/10/27 07:19:00;;;;;;;14.63;8.15;;;;;;;12.52;82.67;99147.47;7390159;19;20379;-76
2022/10/27 07:21:28;;;;;;;12.43;8.07;;;;;;;12.68;82.37;99146.81;7389574;19;20022;-75
2022/10/27 07:23:54;;;;;;;14.10;8.85;;;;;;;12.76;81.84;99153.19;7388787;19;20374;-76
2022/10/27 07:26:21;;;;;;;23.33;8.18;;;;;;;12.77;81.87;99154.84;7388809;19;20022;-76
2022/10/27 07:28:48;;;;;;;13.40;7.78;;;;;;;12.79;81.98;99151.06;7387854;19;20022;-76
2022/10/27 07:31:14;;;;;;;13.00;7.88;;;;;;;12.75;82.17;99157.66;7392204;19;20031;-76
2022/10/27 07:33:41;;;;;;;17.60;7.80;;;;;;;12.81;81.88;99157.06;7383858;19;20019;-77
2022/10/27 07:36:08;;;;;;;12.10;8.00;;;;;;;12.91;82.58;99157.00;7387645;19;20071;-76
2022/10/27 07:38:35;;;;;;;16.52;7.82;;;;;;;13.00;82.32;99150.75;7392958;19;20006;-77
2022/10/27 07:41:01;;;;;;;12.80;7.68;;;;;;;13.04;82.08;99149.47;7386643;19;20222;-77
2022/10/27 07:43:28;;;;;;;12.98;9.10;;;;;;;13.22;82.42;99151.28;7389897;19;20064;-76
2022/10/27 07:45:54;;;;;;;11.15;8.65;;;;;;;13.33;81.56;99145.78;7391206;19;20036;-77
2022/10/27 07:48:21;;;;;;;10.57;7.30;;;;;;;13.37;81.68;99152.44;7390289;19;20023;-76
2022/10/27 07:50:48;;;;;;;14.60;8.10;;;;;;;13.45;81.23;99149.00;7386569;19;20031;-77
2022/10/27 07:53:16;;;;;;;16.35;8.60;;;;;;;13.54;81.11;99150.75;7388828;19;20007;-77
2022/10/27 07:55:43;;;;;;;17.15;8.82;;;;;;;13.54;80.86;99151.56;7389095;19;22944;-77
2022/10/27 07:58:15;;;;;;;13.30;7.38;;;;;;;13.54;80.85;99159.53;7386535;19;20043;-77
2022/10/27 08:00:43;;;;;;;14.88;7.88;;;;;;;13.45;80.90;99160.47;7389518;19;20031;-77
2022/10/27 08:03:18;;;;;;;11.93;8.80;;;;;;;13.48;81.21;99162.84;7389506;19;20022;-77
2022/10/27 08:05:45;;;;;;;20.35;9.73;;;;;;;13.69;81.20;99165.16;7389526;19;20031;-77
2022/10/27 08:08:13;;;;;;;18.10;8.70;;;;;;;13.83;80.83;99169.03;7385017;19;20035;-77
2022/10/27 08:10:41;;;;;;;19.25;9.20;;;;;;;13.92;80.51;99167.25;7390430;19;20018;-77
2022/10/27 08:13:08;;;;;;;14.80;9.27;;;;;;;14.01;80.27;99172.47;7386628;19;20052;-77
2022/10/27 08:15:38;;;;;;;14.40;8.70;;;;;;;14.08;80.31;99177.16;7387947;19;20627;-77
2022/10/27 08:18:05;;;;;;;13.30;7.40;;;;;;;14.19;80.35;99183.06;7388861;19;20015;-77
2022/10/27 08:20:43;;;;;;;12.43;7.68;;;;;;;14.27;80.32;99179.59;7388041;19;20027;-77
2022/10/27 08:23:19;;;;;;;15.25;8.65;;;;;;;14.35;80.50;99184.09;7384161;19;20078;-77
2022/10/27 08:25:45;;;;;;;15.90;7.95;;;;;;;14.36;80.46;99175.97;7386703;19;20057;-77
2022/10/27 08:28:13;;;;;;;15.00;9.18;;;;;;;14.47;80.08;99183.66;7386756;19;20014;-77
2022/10/27 08:30:40;;;;;;;12.27;8.70;;;;;;;14.59;80.00;99186.91;7386354;19;20014;-76
2022/10/27 08:33:17;;;;;;;14.05;8.25;;;;;;;14.71;79.89;99182.09;7385812;19;20501;-76
2022/10/27 08:35:44;;;;;;;17.02;8.63;;;;;;;14.79;79.67;99187.44;7387228;19;20068;-77
2022/10/27 08:38:15;;;;;;;18.25;8.93;;;;;;;14.81;79.84;99185.44;7387886;19;20027;-76
2022/10/27 08:41:14;;;;;;;14.73;7.95;;;;;;;14.79;80.00;99182.09;7383987;19;20018;-76
2022/10/27 08:43:48;;;;;;;25.77;8.35;;;;;;;14.86;79.85;99184.97;7387473;19;20021;-76
2022/10/27 08:46:25;;;;;;;19.40;8.10;;;;;;;14.95;80.38;99178.66;7387835;19;20044;-76
2022/10/27 08:48:54;;;;;;;20.05;8.60;;;;;;;15.08;80.43;99184.31;7381789;19;20019;-76
2022/10/27 08:51:22;;;;;;;16.33;7.47;;;;;;;15.19;80.36;99179.66;7386780;19;20021;-76
2022/10/27 08:54:09;;;;;;;13.90;7.30;;;;;;;15.35;78.84;99180.53;7385163;19;20044;-76
2022/10/27 08:56:38;;;;;;;13.57;7.05;;;;;;;15.42;nan;99182.53;7386007;19;20176;-76
2022/10/27 08:59:19;;;;;;;13.18;7.53;;;;;;;15.56;79.70;99177.34;7383314;19;20663;-76
2022/10/27 09:01:54;;;;;;;26.05;7.93;;;;;;;15.69;79.05;99178.69;7385287;19;20057;-76
2022/10/27 09:04:33;;;;;;;15.32;7.30;;;;;;;15.76;79.06;99169.00;7384047;19;20093;-76
2022/10/27 09:07:22;;;;;;;16.02;6.93;;;;;;;15.89;78.71;99173.84;7382974;19;20014;-76
2022/10/27 09:09:58;;;;;;;16.45;7.25;;;;;;;15.98;78.64;99170.13;7385946;19;20477;-76
2022/10/27 09:12:48;;;;;;;17.60;8.13;;;;;;;16.11;78.25;99166.94;7384966;19;20021;-76
2022/10/27 09:15:15;;;;;;;19.15;7.53;;;;;;;16.18;78.02;99168.72;7386729;19;20038;-76
2022/10/27 09:17:49;;;;;;;15.63;7.10;;;;;;;16.32;77.47;99171.69;7387681;19;20038;-76
2022/10/27 09:20:21;;;;;;;11.50;6.35;;;;;;;16.41;77.18;99176.00;7384223;19;20010;-76
2022/10/27 09:22:50;;;;;;;13.25;6.90;;;;;;;16.46;76.64;99169.13;7385723;19;20379;-77
2022/10/27 09:25:19;;;;;;;13.15;7.03;;;;;;;16.49;76.61;99175.97;7368090;19;20015;-76
2022/10/27 09:27:50;;;;;;;11.52;7.05;;;;;;;16.53;76.01;99171.09;7371685;19;20015;-76
2022/10/27 09:30:18;;;;;;;13.98;6.22;;;;;;;16.65;77.20;99180.41;7368431;19;20031;-76
2022/10/27 09:32:48;;;;;;;15.35;7.25;;;;;;;16.71;77.71;99178.84;7368322;19;20497;-76
2022/10/27 09:35:22;;;;;;;18.95;7.03;;;;;;;16.82;77.03;99178.47;7372259;19;20067;-76
2022/10/27 09:37:50;;;;;;;12.35;6.70;;;;;;;16.84;76.47;99165.78;7374792;19;20018;-76
2022/10/27 09:40:19;;;;;;;13.90;5.95;;;;;;;16.96;75.98;99161.72;7385445;19;20018;-76
2022/10/27 09:42:49;;;;;;;13.68;6.55;;;;;;;16.99;76.38;99161.34;7385334;19;20006;-76
2022/10/27 09:45:19;;;;;;;12.02;5.75;;;;;;;17.06;76.47;99172.16;7386607;19;20014;-76
2022/10/27 09:47:48;;;;;;;10.77;6.00;;;;;;;17.11;76.28;99162.59;7381065;19;20045;-76
2022/10/27 09:50:41;;;;;;;13.82;6.78;;;;;;;17.05;76.75;99159.81;7385909;19;20458;-76
2022/10/27 09:53:38;;;;;;;14.77;6.88;;;;;;;17.13;77.02;99157.06;7381677;19;20014;-76
2022/10/27 09:56:06;;;;;;;14.57;6.30;;;;;;;17.29;76.34;99156.94;7384387;19;20081;-76
2022/10/27 09:58:47;;;;;;;14.63;6.53;;;;;;;17.33;76.51;99154.75;7385552;19;20018;-76
2022/10/27 10:01:13;;;;;;;14.07;6.43;;;;;;;17.41;77.08;99149.31;7391279;19;20011;-76
2022/10/27 10:03:54;;;;;;;16.30;6.00;;;;;;;17.50;76.56;99142.03;7389952;19;20014;-76
2022/10/27 10:06:28;;;;;;;11.90;6.43;;;;;;;17.49;76.30;99148.41;7392081;19;20672;-76
2022/10/27 10:09:14;;;;;;;13.88;6.03;;;;;;;17.58;74.75;99150.00;7390901;19;20064;-76
2022/10/27 10:11:41;;;;;;;11.75;5.70;;;;;;;17.70;73.99;99153.06;7391549;19;20061;-76
2022/10/27 10:14:18;;;;;;;14.65;5.57;;;;;;;17.80;74.26;99151.00;7389623;19;20010;-76
2022/10/27 10:16:45;;;;;;;16.05;4.53;;;;;;;17.84;75.20;99152.28;7393415;19;20015;-76
2022/10/27 10:19:17;;;;;;;11.63;5.15;;;;;;;17.81;75.89;99147.28;7390746;19;20040;-76
2022/10/27 10:21:55;;;;;;;11.25;4.85;;;;;;;17.90;74.39;99148.84;7389658;19;20023;-76
2022/10/27 10:24:30;;;;;;;11.38;5.18;;;;;;;18.05;74.26;99143.50;7391464;19;20485;-76
2022/10/27 10:26:59;;;;;;;18.02;5.85;;;;;;;18.10;73.27;99148.31;7387498;19;20500;-76
2022/10/27 10:29:32;;;;;;;10.07;4.65;;;;;;;18.13;74.41;99142.59;7388202;19;20018;-76
2022/10/27 10:32:08;;;;;;;;;;;;;;;18.21;74.15;99143.31;7393792;19;20011;-76
2022/10/27 10:34:35;;;;;;;10.95;4.93;;;;;;;18.32;73.70;99144.69;7389314;19;19923;-76
2022/10/27 10:37:02;;;;;;;10.07;4.70;;;;;;;18.26;74.44;99131.22;7387794;19;20387;-76
2022/10/27 10:39:33;;;;;;;7.43;3.92;;;;;;;18.28;74.86;99130.03;7388667;19;20018;-76
2022/10/27 10:42:09;;;;;;;9.77;4.15;;;;;;;18.39;74.16;99126.84;7393187;19;20048;-76
2022/10/27 10:44:36;;;;;;;11.25;4.50;;;;;;;18.31;73.25;99124.28;7387210;19;20018;-75
2022/10/27 10:47:03;;;;;;;12.70;4.00;;;;;;;18.40;73.95;99127.69;7388848;19;20051;-76
2022/10/27 10:49:35;;;;;;;14.60;5.30;;;;;;;18.37;74.17;99123.53;7384680;19;20730;-76
2022/10/27 10:52:06;;;;;;;10.10;4.63;;;;;;;18.38;73.46;99125.22;7388780;19;20031;-75
2022/10/27 10:54:39;;;;;;;9.63;5.00;;;;;;;18.58;74.08;99135.31;7385799;19;20086;-76
2022/10/27 10:57:41;;;;;;;10.63;5.00;;;;;;;18.60;73.59;99122.56;7390008;19;20018;-76
2022/10/27 11:00:15;;;;;;;9.07;4.10;;;;;;;18.62;72.96;99117.84;7388704;19;20015;-76
2022/10/27 11:02:50;;;;;;;15.05;4.88;;;;;;;18.60;73.34;99117.22;7389109;19;20043;-76
2022/10/27 11:05:26;;;;;;;11.02;4.30;;;;;;;18.65;72.46;99120.97;7390436;19;20014;-76
2022/10/27 11:07:53;;;;;;;17.23;4.43;;;;;;;18.74;72.99;99120.84;7388179;19;20082;-76
2022/10/27 11:10:24;;;;;;;9.90;4.03;;;;;;;18.82;73.54;99118.09;7384843;19;20015;-76
2022/10/27 11:13:18;;;;;;;15.43;4.43;;;;;;;18.80;72.26;99110.25;7382763;19;20031;-76
2022/10/27 11:15:51;;;;;;;12.57;4.60;;;;;;;18.84;72.57;99108.81;7390394;19;20015;-76
2022/10/27 11:18:20;;;;;;;11.68;3.78;;;;;;;18.94;73.31;99105.00;7387234;19;20039;-76
2022/10/27 11:20:52;;;;;;;13.27;4.63;;;;;;;18.99;72.53;99105.28;7388957;19;20365;-76
2022/10/27 11:23:23;;;;;;;9.45;4.05;;;;;;;19.07;71.21;99099.78;7386577;19;20048;-76
2022/10/27 11:25:51;;;;;;;11.65;4.10;;;;;;;19.10;70.80;99099.38;7388448;19;20019;-76
2022/10/27 11:28:23;;;;;;;8.50;4.28;;;;;;;19.16;71.69;99090.56;7383896;19;20022;-76
2022/10/27 11:31:04;;;;;;;16.63;4.68;;;;;;;19.40;71.22;99091.16;7388421;19;20738;-76
2022/10/27 11:33:49;;;;;;;11.32;4.45;;;;;;;19.46;71.81;99088.53;7386849;19;20026;-76
2022/10/27 11:36:20;;;;;;;13.27;4.68;;;;;;;19.55;70.68;99088.38;7389441;19;20022;-76
2022/10/27 11:39:06;;;;;;;9.75;3.80;;;;;;;19.61;70.96;99079.53;7387474;19;20032;-76
2022/10/27 11:41:44;;;;;;;18.02;4.13;;;;;;;19.64;70.39;99076.44;7390583;19;20102;-76